Latest Observation

67 Stations

10 Minute Data
as of 5/7/26 2:54 PM PDT
Station Date Time Temp (°F) RH (%) Dew Pt (°F) Wind Spd (mph) Wind Dir (°) Wind Gust (mph) Wind Gst Dir (°) Latest Rain (In) Soil Moist (%) Soil Temp (°F) Daily Rain (In) Daily Min Temp (°F) Daily Max Temp (°F) Daily Max Wind (mph)
Hobart Mills 5/7/26 1450 68.2   0.8 28   3 34.3   2.0 6.6   3.8 SW | 226 16.0   8.9 WSW | 255 0.00 - 32.0   0.0 0.03 37.8   10.6 69.6   1.8 16.0   7.8
Prosser Dam 5/7/26 1450 69.1   1.3 30   1 36.6   1.6 6.3   1.0 SSW | 212 13.3   0.7 S | 187 0.00 23.7   1.1 50.4   1.6 0.00 36.9   0.8 70.2   2.1 18.6   1.5
West Incline Village 5/7/26 1450 64.5   3.5 30   10 32.1   3.9 6.0   0.5 SW | 234 16.9   5.1 S | 185 0.00 33.7   0.8 45.4   1.4 0.00 44.8   3.1 65.2   3.3 19.0   6.1
Incline Village (Fairview Blvd) 5/7/26 1450 63.4   1.6 38   3 37.4   0.6 4.1   1.3 SW | 229 10.9   2.0 SW | 228 0.00 26.6   0.6 50.9   1.4 0.00 45.7   4.5 64.9   1.3 12.3   3.4
Incline Village (Diamond Peak) 5/7/26 1450 60.7   0.9 41   9 37.0   7.1 3.3   2.8 ENE | 64 13.3   3.8 SE | 145 0.00 9.6   0.4 45.3   2.8 0.00 46.0   3.3 61.5   1.4 15.8   5.3
Incline Village (Mill Creek) 5/7/26 1450 63.9   1.5 35   6 36.1   2.7 3.8   1.0 WSW | 246 16.4   9.6 SSW | 205 0.00 11.3   0.1 46.0   1.0 0.00 45.0   4.6 64.9   1.3 16.4   7.8
Incline Village (Lakeshore Blvd) 5/7/26 1450 59.6   2.2 57   11 44.5   2.5 7.2   4.6 SSW | 212 9.7   5.7 SSW | 212 0.00 33.4   0.6 58.6   1.8 0.00 40.2   3.8 62.0   4.3 9.8   3.7
Glenbrook 5/7/26 1450 60.8   0.5 57   10 45.3   5.3 3.3   0.2 W | 281 5.6   0.5 WNW | 284 0.00 44.3   0.0 45.0   0.7 0.00 41.6   3.2 64.2   2.0 6.5   1.4
Zephyr Cove 5/7/26 1440 66.2   1.7 32   6 35.4   2.6 3.0   1.6 SSW | 207 7.6   3.6 SW | 229 0.00 - 34.3   0.0 0.00 43.7   2.1 66.7   1.9 7.6   2.6
Kingsbury Grade 5/7/26 1450 67.5   3.7 33   6 37.1   0.7 2.6   1.2 WSW | 239 7.5   2.5 WSW | 242 0.00 6.3   0.7 53.3   3.0 0.00 41.3   3.2 68.3   3.3 10.2   1.1
South Daggett Pass (Ridge) 5/7/26 1450 60.8   0.6 37   7 34.4   5.8 4.6   2.1 WNW | 289 14.4   7.5 W | 266 0.00 6.8   0.0 47.8   2.2 0.00 45.2   3.8 61.5   0.6 18.0   7.1
Palomino Valley 5/7/26 1450 79.3   4.9 15   3 28.2   0.6 12.1   2.9 W | 270 22.1   6.3 W | 278 0.00 6.9   0.2 65.4   2.4 0.00 45.8   0.0 80.3   4.5 28.7   8.0
East Cold Springs 5/7/26 1450 73.3   2.4 23   3 32.8   1.1 12.4   8.7 WNW | 286 22.1   8.3 W | 266 0.00 1.8   0.1 56.8   1.5 0.00 49.8   2.4 75.0   3.6 23.8   3.5
Peavine 5/7/26 1450 69.9   2.6 23   3 30.1   1.3 9.7   3.3 SW | 217 20.5   4.7 SW | 225 0.00 - 53.4   0.0 0.00 52.2   2.7 71.2   3.3 21.1   2.6
West Verdi Peak 5/7/26 1450 68.9   2.2 28   1 34.0   0.7 5.1   0.6 WSW | 244 23.7   10.9 WNW | 286 0.00 21.2   0.8 53.7   2.0 0.00 47.6   4.6 70.1   3.0 23.7   7.6
West Verdi 5/7/26 1450 73.3   1.8 23   1 32.8   0.2 9.5   1.9 WSW | 245 21.9   5.6 WSW | 245 0.00 8.0   0.1 62.3   2.5 0.00 49.8   4.4 75.0   2.6 25.2   8.9
South Verdi 5/7/26 1450 71.2   1.9 27   1 35.5   2.4 20.5   15.2 WSW | 248 32.9   20.2 WSW | 248 0.00 16.7   0.1 63.8   2.5 0.00 50.0   3.4 72.0   1.2 32.9   11.0
Northwest Reno 5/7/26 1450 74.2   2.7 19   2 29.4   0.2 25.1   18.6 WSW | 254 32.5   16.8 W | 263 0.00 23.7   0.3 64.3   3.0 0.00 54.6   1.4 75.3   2.8 35.8   12.8
North Lawton 5/7/26 1450 74.0   1.3 21   1 31.1   0.2 14.4   6.1 WSW | 241 21.5   1.7 SW | 230 0.00 - 39.1   0.0 0.00 52.7   4.0 75.7   2.3 27.6   0.7
West Reno (Mogul) 5/7/26 1450 74.7   3.0 24   3 35.2   5.3 11.7   8.3 SW | 227 23.2   14.0 SW | 220 0.00 37.4   0.5 61.2   1.4 0.00 50.9   1.4 75.4   2.9 24.8   2.5
Caughlin (Hunter Lake Trail) 9/16/25 0800 59.7   3.5 41   11 35.9   2.7 0.0   0.0 N | 0 0.0   0.0 ENE | 66 0.00 15.7   0.0 69.8   0.5 0.00 55.7   3.2 67.7   9.1 9.4   0.9
ArrowCreek 5/7/26 1450 75.4   4.6 19   2 30.9   1.7 6.3   1.9 SW | 230 19.1   5.1 S | 186 0.00 - 32.0   0.0 0.00 51.6   2.5 76.2   4.9 23.1   4.4
Tracy 5/7/26 1450 81.5   5.8 16   3 31.2   0.5 14.3   9.9 W | 259 23.8   12.9 WSW | 241 0.00 7.9   0.1 64.6   3.2 0.00 55.6   1.6 82.7   6.5 28.8   12.5
Virginia Highlands 5/7/26 1450 70.7   3.5 23   4 31.6   7.7 6.9   2.1 SW | 222 14.9   3.8 WSW | 249 0.00 8.4   0.2 56.7   1.4 0.00 53.3   2.2 71.6   3.5 17.3   1.4
Virginia City 5/7/26 1450 68.4   2.4 27   4 33.1   6.2 12.2   3.2 S | 190 21.6   0.2 SW | 214 0.00 8.3   0.1 55.4   2.8 0.00 54.3   4.8 70.0   3.3 24.5   0.2
Six Mile Canyon 9/9/25 0630 60.2   9.6 37   6 33.7   4.8 4.1   2.5 W | 277 6.1   2.9 WNW | 286 0.00 12.5   0.0 75.5   0.7 0.00 57.9   7.6 64.4   1.9 7.0   3.9
Mt Rose Highway 4/30/26 0510 40.8   4.7 47   13 22.3   1.3 2.3   0.2 WSW | 243 4.8   2.1 WSW | 246 0.00 24.1   0.3 43.0   0.8 0.00 40.5   4.7 43.0   5.3 7.7   0.4
Pleasant Valley 5/7/26 1450 74.4   1.5 26   3 37.0   4.9 15.8   11.7 SSW | 196 22.4   12.3 S | 188 0.00 2.8   0.1 62.9   3.2 0.00 47.8   2.6 75.2   1.3 25.6   7.8
New Washoe City 5/7/26 1450 72.9   1.8 24   2 33.9   4.2 12.0   7.3 SW | 230 22.0   10.6 WSW | 244 0.00 4.5   0.1 59.7   2.6 0.00 47.3   2.0 73.9   2.0 27.3   6.3
Franktown Creek 5/7/26 1450 72.1   0.8 25   1 34.9   1.5 10.8   6.0 S | 190 27.0   14.0 S | 183 0.00 11.3   0.1 55.4   1.8 0.00 46.5   2.5 73.6   1.6 27.0   11.8
Musgrove Creek 5/7/26 1450 70.1   2.1 27   4 34.8   5.6 4.2   0.3 ENE | 72 11.4   0.4 ESE | 103 0.00 45.0   0.1 53.4   1.2 0.00 54.1   4.7 71.2   2.6 18.1   5.6
East Carson 11/23/24 0110 28.6   28.4 - - 4.7   11.0 SW | 220 14.7   10.1 SW | 219 0.02 - 50.9   0.1 0.02 -25.9   79.1 42.9   14.6 16.0   10.7
Kings Canyon 5/7/26 1450 71.7   1.3 27   4 36.2   4.9 6.7   2.5 S | 184 17.8   8.0 S | 177 0.00 14.9   0.2 58.5   1.8 0.00 47.6   4.4 73.0   1.6 21.0   0.8
Carson City (Voltaire Canyon) 5/7/26 1450 73.0   1.4 25   6 35.1   8.5 13.0   5.0 WSW | 248 22.0   5.1 WSW | 241 0.00 2.8   0.1 60.6   1.4 0.01 54.2   4.4 74.2   2.1 24.6   2.9
Jacks Valley 5/7/26 1450 72.5   1.4 25   5 34.8   6.8 13.4   2.0 SW | 236 22.1   4.2 SW | 220 0.00 13.7   0.1 68.8   3.7 0.00 49.2   4.7 74.0   2.2 31.4   10.8
Genoa 5/7/26 1450 74.9   0.2 25   4 36.9   4.8 4.5   0.3 W | 274 14.7   3.6 W | 272 0.00 8.9   1.1 76.7   1.6 0.00 47.8   2.0 76.5   0.4 21.2   9.2
South Genoa (Walleys Hot Springs) 5/7/26 1450 75.9   1.9 24   2 36.1   4.4 5.5   3.5 WNW | 293 15.3   0.0 WNW | 299 0.00 13.3   0.6 61.9   2.4 0.00 44.3   1.5 77.2   2.4 21.5   3.5
SW Gardnerville (HWY 88) 5/7/26 1450 74.7   2.8 24   1 35.4   3.6 18.1   11.0 W | 262 26.8   14.3 WSW | 250 0.00 3.4   0.0 57.4   3.0 0.00 41.2   0.4 75.9   3.1 26.8   13.2
Sheridan 5/7/26 1450 77.0   4.7 17   5 28.6   2.1 7.7   1.7 SW | 232 23.4   11.6 W | 259 0.00 4.9   0.8 60.6   2.5 0.00 44.6   0.7 77.7   4.6 26.4   14.6
Ruhenstroth 5/7/26 1450 77.5   5.2 19   2 32.2   2.3 7.5   3.1 SW | 226 17.1   3.7 NW | 316 0.00 12.5   0.0 60.0   2.6 0.00 44.9   2.4 78.4   5.2 18.6   2.1
Double Spring 5/7/26 1450 70.9   4.5 25   4 33.0   0.4 9.2   1.8 WNW | 296 18.9   4.2 NW | 323 0.00 30.8   0.3 57.4   3.0 0.00 37.9   0.5 72.1   5.2 27.0   7.0
North Topaz Lake 5/7/26 1450 74.0   6.0 23   17 33.7   9.2 9.7   3.7 WSW | 245 21.2   8.8 SW | 226 0.00 10.0   0.2 79.3   5.6 0.00 54.5   7.2 75.1   6.2 23.1   8.2
Wild Oat Mountain 5/7/26 1450 71.6   6.0 23   19 32.0   10.2 13.1   4.9 W | 271 25.5   9.9 W | 276 0.00 16.7   0.2 58.6   2.3 0.00 53.7   6.7 73.2   6.8 25.7   10.2
Smith Valley 5/7/26 1450 79.6   7.7 21   8 36.6   1.7 9.5   5.5 WNW | 303 18.0   8.3 WSW | 257 0.00 5.7   0.0 61.2   2.3 0.00 49.3   5.4 80.4   7.4 18.0   5.2
Pine Grove Mountain 5/7/26 1450 63.0   7.7 26   14 28.0   3.9 16.9   11.4 WNW | 283 25.3   12.9 WSW | 252 0.00 22.4   1.2 53.2   3.9 0.00 51.4   7.3 64.8   8.5 26.6   9.6
Paradise Hill 5/7/26 1450 77.9   5.2 21   1 35.4   5.1 17.1   10.8 WNW | 282 31.8   19.4 W | 279 0.00 8.0   0.0 61.5   0.8 0.00 45.6   0.7 80.3   6.7 33.4   15.0
Winnemucca 5/7/26 1450 78.5   5.6 19   1 32.8   6.0 13.6   8.4 W | 272 25.8   14.9 WSW | 249 0.00 6.0   0.0 61.3   1.8 0.00 53.1   9.2 79.6   5.6 34.6   18.8
NE Elko 5/7/26 1450 75.2   6.0 21   2 33.0   3.1 14.1   10.0 W | 271 24.8   11.0 W | 277 0.00 12.4   0.1 61.9   2.5 0.00 37.9   5.2 76.4   6.6 31.6   16.0
North Elko 5/7/26 1450 73.4   8.1 21   8 31.5   0.7 14.1   5.8 W | 275 21.2   2.7 WNW | 297 0.00 28.3   0.1 57.1   2.5 0.00 49.1   9.7 74.0   6.1 34.0   9.4
South Elko 5/7/26 1450 72.1   11.4 25   18 34.2   24.6 14.2   9.2 W | 271 27.0   14.4 W | 271 0.00 18.5   0.1 58.7   3.5 0.00 55.3   10.5 - 29.4   11.1
Lamoille 1/28/26 1720 33.2   0.5 65   17 22.8   6.3 5.8   1.5 SSE | 166 7.7   1.9 SE | 139 0.00 12.2   0.0 33.4   0.1 0.02 23.5   2.0 36.5   5.9 25.6   17.4
Reid Gardner Sub 5/6/26 1130 73.4   2.5 26   2 36.5   0.4 2.6   2.7 SSW | 196 7.6   4.5 SW | 218 0.00 24.0   0.1 70.1   0.4 0.00 50.0   4.6 74.0   1.7 7.6   7.8
Corn Creek 5/7/26 1450 86.3   5.9 13   5 28.9   3.6 3.3   8.0 NNW | 330 9.8   9.7 NW | 314 0.00 4.0   0.1 78.1   3.4 0.00 62.1   3.1 87.1   5.5 19.9   3.6
Lucky Strike 5/7/26 1450 74.4   6.3 15   5 23.3   2.0 4.3   9.5 NE | 44 13.7   8.9 NNE | 13 0.00 4.7   0.2 73.5   2.9 0.00 57.1   4.2 75.4   6.7 19.8   6.0
Lower Angel Peak 5/7/26 1450 69.2   7.2 19   5 25.6   0.1 6.5   1.6 N | 352 15.2   10.1 NNW | 329 0.00 10.0   0.2 57.1   1.9 0.00 46.0   3.9 69.9   7.1 18.8   6.5
Angel Peak 5/7/26 1450 59.4   5.4 24   6 22.9   0.4 2.8   1.8 NNE | 25 8.4   8.4 NNE | 17 0.00 3.6   0.0 62.8   4.1 0.00 46.4   9.8 62.1   6.9 16.2   15.0
Upper Kyle Canyon 5/7/26 1450 63.1   6.0 24   0 25.7   4.8 3.9   8.0 SSW | 205 10.4   12.6 ESE | 116 0.00 13.4   0.1 56.0   2.7 0.00 44.0   4.8 66.3   6.8 15.9   7.1
Mt Charleston 5/7/26 1450 66.0   7.3 23   1 26.8   5.1 2.6   0.6 ENE | 59 12.3   0.2 E | 92 0.00 18.2   0.0 49.7   1.1 0.00 46.2   7.6 66.8   7.5 13.4   6.2
Mid Kyle Canyon 5/7/26 1450 71.3   6.7 19   3 26.8   1.6 6.9   2.4 E | 91 13.7   11.7 ESE | 109 0.00 7.0   0.1 58.9   2.6 0.00 48.8   7.3 72.6   6.8 17.9   7.5
Blue Diamond 5/7/26 1450 84.8   8.5 14   9 29.6   5.7 3.7   4.8 NE | 46 8.1   7.4 NE | 50 0.00 3.0   0.5 72.9   4.7 0.00 50.1   5.8 85.3   8.3 15.4   3.4
Artesian Sub 5/7/26 1450 91.1   7.6 11   9 28.7   9.0 1.2   1.3 W | 265 6.7   0.9 W | 261 0.00 13.2   0.1 74.3   0.3 0.00 66.4   2.8 92.8   7.7 9.2   3.5
North Henderson 5/7/26 1450 90.8   7.0 11   9 29.4   9.0 3.4   0.7 NE | 52 8.3   2.0 NNE | 20 0.00 8.8   0.0 79.2   0.9 0.00 65.3   2.6 91.5   6.7 11.7   4.5
Sandy Valley 5/7/26 1450 87.8   10.0 16   10 35.8   3.8 7.2   2.2 WNW | 289 13.3   0.8 WNW | 295 0.00 4.5   0.1 77.6   3.0 0.00 59.3   5.8 89.0   10.8 16.5   0.1
Searchlight 5/7/26 1450 83.3   8.1 13   13 27.7   10.2 9.6   4.7 NNE | 15 18.1   5.1 N | 1 0.00 4.6   0.1 75.6   3.5 0.00 56.2   8.4 85.5   9.0 22.6   8.4
Laughlin 5/7/26 1450 97.4   10.9 10   12 30.8   12.4 4.4   1.4 N | 352 11.6   1.1 N | 5 0.00 4.2   0.1 83.9   2.8 0.00 68.9   6.5 98.3   11.3 23.0   11.4
31Mission Hills 5/7/26 1450 88.1   7.6 12   8 28.3   6.6 5.9   2.3 NNW | 333 13.7   5.2 NW | 315 0.00 3.8   0.1 86.6   3.7 0.00 67.9   8.2 88.5   6.9 13.8   8.1
32 Enterprise Sierra Cliffs 5/7/26 1450 85.6   8.0 11   9 24.8   8.0 5.9   0.1 E | 87 13.3   0.4 ENE | 75 0.00 2.4   0.1 81.8   3.7 0.00 66.9   6.0 86.4   8.0 14.3   0.5
Max     97.4 57 45.3 25.1 - 32.9 - 0.00 45.0 86.6 0.03 68.9 98.3 35.8
Avg     73.5 24 32.6 8.7 - 17.9 - 0.00 13.2 59.9 - - - -
Min     59.4 10 22.9 1.2 - 5.6 - 0.00 1.8 32.0 0.00 36.9 61.5 6.5